Time;durP1;ratioP1;P1;durP2;ratioP2;P2;SDS_P1;SDS_P2;PMS_P1;PMS_P2;Temp;Humidity;BMP_temperature;BMP_pressure;BME280_temperature;BME280_humidity;BME280_pressure;Samples;Min_cycle;Max_cycle;Signal;HPM_P1;HPM_P2
2022/10/26 00:01:04;;;;;;;5.13;2.00;;;;;;;12.82;85.23;95583.16;4836524;29;20232;-87
2022/10/26 00:03:29;;;;;;;4.23;1.90;;;;;;;12.85;85.58;95582.00;4841880;29;20612;-87
2022/10/26 00:06:01;;;;;;;9.37;2.00;;;;;;;12.77;85.49;95586.22;4826988;29;20227;-87
2022/10/26 00:08:26;;;;;;;5.37;2.07;;;;;;;12.79;85.76;95586.06;4836440;29;20194;-88
2022/10/26 00:10:56;;;;;;;5.87;2.40;;;;;;;12.74;85.72;95583.94;4813085;29;20228;-87
2022/10/26 00:13:21;;;;;;;3.43;1.80;;;;;;;12.79;85.89;95586.06;4832762;29;20201;-87
2022/10/26 00:15:46;;;;;;;5.93;2.07;;;;;;;12.81;86.29;95586.75;4838780;29;20205;-87
2022/10/26 00:18:12;;;;;;;3.73;1.90;;;;;;;12.89;85.91;95588.50;4829978;29;20651;-87
2022/10/26 00:20:37;;;;;;;4.67;2.00;;;;;;;12.77;86.43;95588.03;4828360;29;20754;-87
2022/10/26 00:23:02;;;;;;;5.63;2.13;;;;;;;12.80;86.62;95586.88;4827718;29;20239;-86
2022/10/26 00:25:28;;;;;;;5.23;1.80;;;;;;;12.84;86.09;95583.00;4832773;29;20266;-87
2022/10/26 00:27:53;;;;;;;6.47;2.00;;;;;;;12.82;85.86;95579.72;4845449;29;20202;-87
2022/10/26 00:30:18;;;;;;;5.07;1.80;;;;;;;12.89;85.08;95585.91;4828709;29;20209;-86
2022/10/26 00:32:43;;;;;;;3.07;1.73;;;;;;;12.88;84.55;95584.28;4851276;29;20721;-87
2022/10/26 00:35:09;;;;;;;2.63;1.70;;;;;;;12.86;84.57;95584.44;4833633;29;20276;-86
2022/10/26 00:37:34;;;;;;;4.80;1.80;;;;;;;12.91;84.15;95586.59;4836663;29;20245;-87
2022/10/26 00:39:59;;;;;;;2.30;1.53;;;;;;;12.94;83.60;95592.28;4827976;29;20218;-87
2022/10/26 00:42:25;;;;;;;5.77;2.00;;;;;;;12.98;83.61;95590.16;4845493;29;20289;-87
2022/10/26 00:44:53;;;;;;;2.33;1.80;;;;;;;13.09;83.41;95594.28;4846507;29;20193;-86
2022/10/26 00:47:31;;;;;;;6.70;2.00;;;;;;;12.99;84.09;95591.81;4845203;29;20193;-87
2022/10/26 00:50:00;;;;;;;3.20;1.43;;;;;;;12.99;84.20;95599.63;4831603;29;20205;-86
2022/10/26 00:52:26;;;;;;;3.10;1.70;;;;;;;12.96;84.17;95590.31;4814678;29;20573;-87
2022/10/26 00:54:53;;;;;;;4.10;2.10;;;;;;;12.99;84.56;95592.63;4829854;29;20575;-86
2022/10/26 00:57:18;;;;;;;5.20;2.40;;;;;;;13.03;84.50;95593.09;4829775;29;20193;-86
2022/10/26 00:59:44;;;;;;;6.13;1.83;;;;;;;13.01;85.20;95590.66;4812424;29;20222;-85
2022/10/26 01:02:10;;;;;;;5.83;1.60;;;;;;;12.99;84.77;95582.19;4815316;29;20258;-86
2022/10/26 01:04:35;;;;;;;6.13;2.00;;;;;;;13.02;84.91;95581.88;4830493;29;20189;-88
2022/10/26 01:07:02;;;;;;;4.50;2.20;;;;;;;12.97;84.69;95578.09;4850018;29;20197;-86
2022/10/26 01:09:28;;;;;;;3.80;2.03;;;;;;;13.03;84.38;95577.47;4823794;29;20226;-86
2022/10/26 01:11:53;;;;;;;5.20;2.13;;;;;;;13.06;84.16;95571.91;4831829;29;20194;-85
2022/10/26 01:14:20;;;;;;;4.90;1.80;;;;;;;13.06;84.13;95566.72;4823670;29;20206;-86
2022/10/26 01:17:01;;;;;;;5.63;2.07;;;;;;;13.14;83.43;95571.94;4810216;29;20200;-86
2022/10/26 01:19:52;;;;;;;4.43;1.73;;;;;;;13.26;83.61;95567.25;4834719;29;20245;-86
2022/10/26 01:22:21;;;;;;;3.23;1.90;;;;;;;13.18;83.57;95567.22;4817932;29;20317;-86
2022/10/26 01:25:14;;;;;;;4.70;2.10;;;;;;;13.24;83.28;95562.19;4847654;29;20221;-87
2022/10/26 01:27:42;;;;;;;2.60;1.53;;;;;;;13.23;83.13;95568.38;4848477;29;20190;-86
2022/10/26 01:30:25;;;;;;;5.10;1.87;;;;;;;13.32;82.78;95559.56;4831392;29;20316;-86
2022/10/26 01:33:06;;;;;;;5.50;1.87;;;;;;;13.26;82.92;95552.41;4845618;29;20186;-86
2022/10/26 01:35:32;;;;;;;3.23;1.67;;;;;;;13.23;83.56;95554.53;4842117;29;20202;-87
2022/10/26 01:38:08;;;;;;;3.40;1.80;;;;;;;13.26;84.61;95549.81;4829211;29;20337;-86
2022/10/26 01:40:37;;;;;;;5.50;2.00;;;;;;;13.30;85.15;95545.06;4812056;29;20213;-86
2022/10/26 01:43:07;;;;;;;5.20;1.90;;;;;;;13.30;85.46;95543.28;4843809;29;20232;-86
2022/10/26 01:45:33;;;;;;;5.47;2.00;;;;;;;13.26;86.03;95528.94;4849864;29;20196;-86
2022/10/26 01:47:59;;;;;;;5.93;2.13;;;;;;;13.27;86.47;95533.19;4819528;29;20230;-87
2022/10/26 01:50:26;;;;;;;3.90;2.20;;;;;;;13.22;87.02;95532.84;4852398;29;20244;-87
2022/10/26 01:52:51;;;;;;;4.83;2.13;;;;;;;13.09;88.06;95535.13;4831944;29;20276;-86
2022/10/26 01:55:51;;;;;;;4.63;2.10;;;;;;;13.20;87.45;95521.78;4831349;29;20204;-86
2022/10/26 01:58:34;;;;;;;5.03;1.90;;;;;;;13.00;87.60;95518.66;4847516;29;20185;-86
2022/10/26 02:01:19;;;;;;;5.90;2.10;;;;;;;13.12;87.49;95534.78;4838484;29;20217;-86
2022/10/26 02:04:07;;;;;;;2.83;1.67;;;;;;;13.01;87.68;95525.50;4842182;29;20242;-86
2022/10/26 02:06:32;;;;;;;2.90;1.60;;;;;;;13.07;86.22;95544.06;4846624;29;20202;-86
2022/10/26 02:09:22;;;;;;;4.10;1.93;;;;;;;13.12;86.12;95545.22;4849311;29;20271;-86
2022/10/26 02:11:50;;;;;;;3.70;1.70;;;;;;;13.08;85.74;95549.13;4843910;29;20543;-87
2022/10/26 02:14:27;;;;;;;4.17;1.70;;;;;;;13.11;84.52;95540.97;4838875;29;20726;-86
2022/10/26 02:16:57;;;;;;;3.90;1.63;;;;;;;13.19;84.35;95554.03;4851392;29;20189;-87
2022/10/26 02:19:31;;;;;;;4.23;1.80;;;;;;;13.20;83.93;95552.25;4841537;29;20690;-86
2022/10/26 02:22:01;;;;;;;3.87;1.73;;;;;;;13.13;84.29;95552.06;4845471;29;20209;-86
2022/10/26 02:24:27;;;;;;;3.47;1.50;;;;;;;13.11;83.91;95559.22;4829535;29;20196;-86
2022/10/26 02:26:52;;;;;;;3.07;1.60;;;;;;;13.20;83.53;95566.09;4843531;29;20283;-86
2022/10/26 02:29:18;;;;;;;1.93;1.40;;;;;;;13.14;84.05;95561.50;4830422;29;20222;-86
2022/10/26 02:31:45;;;;;;;1.53;1.20;;;;;;;13.12;83.58;95573.06;4831365;29;20223;-86
2022/10/26 02:34:12;;;;;;;4.47;1.70;;;;;;;13.23;83.00;95567.56;4831600;29;20190;-86
2022/10/26 02:36:41;;;;;;;19.17;2.23;;;;;;;13.21;83.19;95559.91;4824313;29;20200;-86
2022/10/26 02:39:07;;;;;;;3.33;1.43;;;;;;;13.19;83.14;95561.88;4843937;29;20210;-86
2022/10/26 02:41:32;;;;;;;4.03;1.30;;;;;;;13.26;81.78;95562.84;4842989;29;20224;-85
2022/10/26 02:44:22;;;;;;;3.23;1.70;;;;;;;13.29;81.04;95557.31;4849148;29;20194;-86
2022/10/26 02:46:48;;;;;;;4.63;1.57;;;;;;;13.38;80.28;95563.31;4829830;29;20315;-86
2022/10/26 02:49:13;;;;;;;2.73;1.30;;;;;;;13.42;80.99;95576.84;4849325;29;20764;-86
2022/10/26 02:51:45;;;;;;;3.03;1.60;;;;;;;13.39;80.93;95572.78;4828655;29;20193;-86
2022/10/26 02:54:31;;;;;;;3.80;1.30;;;;;;;13.45;80.94;95579.13;4832438;29;20187;-86
2022/10/26 02:56:59;;;;;;;1.40;1.03;;;;;;;13.35;81.01;95581.91;4841397;29;20556;-87
2022/10/26 02:59:27;;;;;;;3.20;1.23;;;;;;;13.40;80.91;95584.84;4815494;29;20214;-86
2022/10/26 03:01:53;;;;;;;7.17;2.17;;;;;;;13.35;81.50;95581.09;4823450;29;20584;-86
2022/10/26 03:04:18;;;;;;;4.20;1.30;;;;;;;13.39;81.16;95583.22;4845146;29;20190;-86
2022/10/26 03:06:54;;;;;;;2.33;1.33;;;;;;;13.48;80.59;95579.63;4811459;29;20280;-86
2022/10/26 03:09:19;;;;;;;4.23;1.60;;;;;;;13.43;81.15;95583.69;4813408;29;20247;-86
2022/10/26 03:11:44;;;;;;;4.60;1.70;;;;;;;13.35;82.13;95581.91;4829468;29;20189;-86
2022/10/26 03:14:10;;;;;;;2.83;1.40;;;;;;;13.40;82.02;95589.25;4829842;29;20193;-86
2022/10/26 03:16:35;;;;;;;3.77;1.40;;;;;;;13.40;81.77;95584.84;4843757;29;20193;-86
2022/10/26 03:19:00;;;;;;;3.93;1.60;;;;;;;13.33;82.63;95584.66;4829179;29;20604;-86
2022/10/26 03:21:27;;;;;;;3.20;1.50;;;;;;;13.37;81.85;95585.19;4832171;29;20431;-86
2022/10/26 03:23:52;;;;;;;5.40;2.17;;;;;;;13.36;81.91;95582.72;4828144;29;20193;-86
2022/10/26 03:26:18;;;;;;;3.67;2.10;;;;;;;13.32;82.21;95580.44;4846516;29;20192;-86
2022/10/26 03:28:44;;;;;;;4.83;1.20;;;;;;;13.31;82.48;95591.84;4827267;29;20182;-87
2022/10/26 03:31:09;;;;;;;4.03;1.67;;;;;;;13.29;83.09;95598.22;4833309;29;20229;-86
2022/10/26 03:33:35;;;;;;;5.13;1.40;;;;;;;13.26;83.33;95594.16;4832185;29;20239;-86
2022/10/26 03:36:00;;;;;;;2.63;1.37;;;;;;;13.21;83.67;95593.00;4829083;29;20193;-86
2022/10/26 03:38:25;;;;;;;1.70;1.50;;;;;;;13.23;83.24;95596.25;4844096;29;20193;-86
2022/10/26 03:40:51;;;;;;;3.83;1.97;;;;;;;13.29;83.31;95593.81;4830857;29;20216;-86
2022/10/26 03:43:16;;;;;;;7.97;1.83;;;;;;;13.22;83.04;95590.22;4840834;29;20200;-86
2022/10/26 03:45:41;;;;;;;2.07;1.33;;;;;;;13.22;83.35;95586.78;4827522;29;20225;-86
2022/10/26 03:48:07;;;;;;;2.30;1.57;;;;;;;13.21;83.35;95600.81;4825478;29;20220;-86
2022/10/26 03:50:32;;;;;;;3.63;1.53;;;;;;;13.15;83.28;95583.97;4828953;29;20217;-86
2022/10/26 03:52:57;;;;;;;5.07;2.20;;;;;;;13.09;83.59;95591.66;4813334;29;20225;-86
2022/10/26 03:55:22;;;;;;;2.10;1.43;;;;;;;13.08;84.26;95580.41;4848502;29;20215;-86
2022/10/26 03:57:48;;;;;;;1.87;1.57;;;;;;;12.99;84.61;95576.19;4833514;29;20654;-86
2022/10/26 04:00:16;;;;;;;4.23;1.90;;;;;;;12.93;85.35;95579.41;4833698;29;20280;-86
2022/10/26 04:02:45;;;;;;;5.00;1.90;;;;;;;12.94;85.43;95578.44;4848528;29;20229;-87
2022/10/26 04:05:10;;;;;;;1.93;1.40;;;;;;;12.88;85.73;95579.06;4838254;29;20221;-86
2022/10/26 04:07:35;;;;;;;5.07;1.80;;;;;;;12.84;85.89;95586.41;4854153;29;20197;-88
2022/10/26 04:10:01;;;;;;;5.03;1.73;;;;;;;12.77;86.96;95581.00;4855677;29;20212;-88
2022/10/26 04:12:26;;;;;;;2.03;1.40;;;;;;;12.81;87.10;95589.34;4841891;29;20181;-86
2022/10/26 04:14:51;;;;;;;3.23;1.70;;;;;;;12.77;87.26;95583.63;4867352;29;20177;-89
2022/10/26 04:17:17;;;;;;;4.60;1.70;;;;;;;12.75;87.41;95584.75;4856258;29;20174;-87
2022/10/26 04:19:42;;;;;;;5.63;1.80;;;;;;;12.79;87.73;95586.06;4850539;29;20338;-86
2022/10/26 04:22:10;;;;;;;3.33;1.93;;;;;;;12.76;87.70;95582.00;4832785;29;20213;-85
2022/10/26 04:24:35;;;;;;;4.37;2.20;;;;;;;12.75;88.58;95584.75;4855215;29;20280;-87
2022/10/26 04:27:00;;;;;;;4.60;2.00;;;;;;;12.80;88.55;95579.06;4841802;29;20381;-82
2022/10/26 04:32:01;;;;;;;4.17;1.70;;;;;;;12.83;89.55;95558.72;5296357;23;20244;-84
2022/10/26 04:34:26;;;;;;;3.00;1.70;;;;;;;12.83;89.66;95557.91;4867650;29;20196;-83
2022/10/26 04:36:54;;;;;;;3.03;1.53;;;;;;;12.83;89.89;95573.53;4839789;29;20224;-85
2022/10/26 04:39:20;;;;;;;4.07;1.80;;;;;;;12.82;90.68;95587.56;4849983;29;20666;-84
2022/10/26 04:41:45;;;;;;;4.77;1.77;;;;;;;12.88;90.43;95564.25;4852003;29;20312;-84
2022/10/26 04:44:10;;;;;;;4.40;1.80;;;;;;;12.91;89.75;95574.38;4849999;29;20193;-84
2022/10/26 04:46:35;;;;;;;3.37;1.90;;;;;;;12.90;89.51;95577.97;4839665;29;20483;-85
2022/10/26 04:49:01;;;;;;;2.47;1.80;;;;;;;12.87;90.12;95577.44;4863876;29;20193;-84
2022/10/26 04:51:26;;;;;;;3.73;1.70;;;;;;;12.83;90.75;95589.19;4834116;29;20590;-81
2022/10/26 04:54:33;;;;;;;3.40;2.00;;;;;;;12.81;91.03;95585.91;4853944;29;20197;-88
2022/10/26 04:56:58;;;;;;;4.70;1.90;;;;;;;12.72;91.69;95578.09;4886448;29;20633;-87
2022/10/26 04:59:26;;;;;;;5.60;2.13;;;;;;;12.72;91.59;95578.09;4892719;29;20211;-86
2022/10/26 05:01:51;;;;;;;4.23;1.93;;;;;;;12.78;91.58;95571.41;4879985;29;20242;-86
2022/10/26 05:04:20;;;;;;;5.20;1.90;;;;;;;12.79;91.65;95567.81;4876459;29;20196;-87
2022/10/26 05:06:45;;;;;;;4.60;2.10;;;;;;;12.81;92.10;95584.13;4895034;29;20207;-86
2022/10/26 05:09:19;;;;;;;3.63;2.10;;;;;;;12.77;92.75;95575.81;4862115;29;20687;-87
2022/10/26 05:11:45;;;;;;;6.10;2.20;;;;;;;12.64;93.82;95585.88;4906131;29;20722;-86
2022/10/26 05:14:11;;;;;;;3.60;2.10;;;;;;;12.74;93.29;95583.94;4895706;29;20206;-85
2022/10/26 05:16:37;;;;;;;2.73;2.13;;;;;;;12.73;93.36;95584.94;4879700;29;20195;-82
2022/10/26 05:19:02;;;;;;;4.20;1.80;;;;;;;12.67;94.00;95601.19;4881148;29;20643;-85
2022/10/26 05:21:30;;;;;;;8.53;3.83;;;;;;;12.68;94.13;95595.00;4888235;29;20230;-84
2022/10/26 05:23:56;;;;;;;3.50;2.10;;;;;;;12.68;94.36;95600.22;4870310;29;20218;-85
2022/10/26 05:26:22;;;;;;;7.03;2.30;;;;;;;12.64;94.32;95604.13;4872562;29;20664;-85
2022/10/26 05:28:47;;;;;;;4.23;3.20;;;;;;;12.65;94.35;95604.94;4893368;29;20551;-86
2022/10/26 05:31:13;;;;;;;6.27;3.80;;;;;;;12.67;94.53;95602.97;4881287;29;20223;-81
2022/10/26 05:33:38;;;;;;;5.93;2.63;;;;;;;12.64;94.94;95601.53;4833000;29;20577;-79
2022/10/26 05:36:04;;;;;;;3.20;2.10;;;;;;;12.66;95.04;95611.78;4852637;29;20213;-79
2022/10/26 05:38:30;;;;;;;4.47;2.20;;;;;;;12.68;95.10;95609.81;4851549;29;20205;-84
2022/10/26 05:40:55;;;;;;;4.50;2.70;;;;;;;12.71;95.18;95607.69;4860278;29;20253;-85
2022/10/26 05:43:22;;;;;;;6.80;2.80;;;;;;;12.68;94.92;95607.22;4841944;29;20211;-84
2022/10/26 05:45:51;;;;;;;3.83;2.63;;;;;;;12.68;95.63;95605.41;4851464;29;20185;-84
2022/10/26 05:48:16;;;;;;;5.03;2.40;;;;;;;12.76;95.03;95610.66;4850789;29;20200;-83
2022/10/26 05:50:42;;;;;;;7.97;2.50;;;;;;;12.83;95.28;95613.44;4866190;29;20208;-84
2022/10/26 05:53:07;;;;;;;4.03;2.47;;;;;;;12.90;94.47;95618.84;4871803;29;20834;-83
2022/10/26 05:55:33;;;;;;;7.23;2.00;;;;;;;12.96;94.29;95626.00;4839239;29;20197;-83
2022/10/26 05:57:58;;;;;;;5.80;2.30;;;;;;;12.99;93.83;95630.91;4838151;29;20192;-82
2022/10/26 06:00:26;;;;;;;3.30;2.20;;;;;;;13.03;93.76;95640.03;4864301;29;20753;-83
2022/10/26 06:03:29;;;;;;;4.97;1.87;;;;;;;13.14;93.75;95642.31;4846212;29;20243;-85
2022/10/26 06:05:56;;;;;;;8.60;2.27;;;;;;;13.16;93.05;95644.75;4865212;29;20196;-85
2022/10/26 06:08:24;;;;;;;4.80;2.00;;;;;;;13.22;92.91;95647.59;4855853;29;20186;-84
2022/10/26 06:10:49;;;;;;;2.67;1.97;;;;;;;13.22;92.90;95647.59;4841811;29;20219;-85
2022/10/26 06:13:15;;;;;;;5.07;2.07;;;;;;;13.18;92.61;95654.06;4839645;29;20624;-84
2022/10/26 06:16:00;;;;;;;4.80;1.93;;;;;;;13.14;93.30;95663.19;4832842;29;20206;-84
2022/10/26 06:18:41;;;;;;;6.00;3.30;;;;;;;13.13;93.70;95668.56;4845945;29;20188;-84
2022/10/26 06:21:14;;;;;;;7.40;5.50;;;;;;;13.17;93.31;95675.91;4867257;29;20209;-84
2022/10/26 06:23:53;;;;;;;6.13;3.83;;;;;;;13.26;92.59;95675.00;4869571;29;20205;-84
2022/10/26 06:26:40;;;;;;;6.87;2.87;;;;;;;13.32;92.45;95682.16;4854025;29;20192;-84
2022/10/26 06:29:44;;;;;;;3.10;2.00;;;;;;;13.45;91.39;95678.25;4856827;29;20213;-84
2022/10/26 06:32:10;;;;;;;3.53;2.03;;;;;;;13.45;91.10;95673.88;4848989;29;20201;-85
2022/10/26 06:34:38;;;;;;;26.80;17.20;;;;;;;13.46;90.85;95679.91;4862475;29;20253;-83
2022/10/26 06:37:03;;;;;;;9.73;5.50;;;;;;;13.50;90.69;95683.78;4858026;29;20188;-82
2022/10/26 06:39:30;;;;;;;4.40;3.07;;;;;;;13.50;90.61;95683.78;4866113;29;20577;-84
2022/10/26 06:41:57;;;;;;;6.10;3.13;;;;;;;13.53;91.00;95691.31;4857518;29;20213;-83
2022/10/26 06:44:23;;;;;;;6.17;2.70;;;;;;;13.50;91.51;95691.63;4847596;29;20199;-84
2022/10/26 06:47:09;;;;;;;4.47;3.50;;;;;;;13.56;91.72;95697.00;4837211;29;20208;-84
2022/10/26 06:49:38;;;;;;;7.07;3.60;;;;;;;13.59;92.21;95701.09;4849629;29;20216;-84
2022/10/26 06:52:11;;;;;;;9.23;2.40;;;;;;;13.66;92.47;95699.47;4852457;29;20197;-84
2022/10/26 06:54:44;;;;;;;6.80;2.50;;;;;;;13.75;91.82;95711.53;4845211;29;20229;-84
2022/10/26 06:57:12;;;;;;;8.40;3.27;;;;;;;13.79;91.65;95712.84;4856166;29;20264;-84
2022/10/26 06:59:55;;;;;;;4.97;2.87;;;;;;;13.77;91.55;95714.78;4862800;29;20250;-84
2022/10/26 07:02:21;;;;;;;7.77;3.13;;;;;;;13.85;91.40;95709.56;4863554;29;20331;-85
2022/10/26 07:04:46;;;;;;;9.80;3.73;;;;;;;13.77;92.14;95719.19;4867348;29;20326;-84
2022/10/26 07:07:14;;;;;;;5.93;2.87;;;;;;;13.86;92.73;95721.66;4854095;29;20193;-84
2022/10/26 07:09:39;;;;;;;8.37;2.80;;;;;;;13.98;92.34;95716.13;4840705;29;20280;-85
2022/10/26 07:12:04;;;;;;;4.53;2.30;;;;;;;14.16;91.29;95717.56;4861531;29;20276;-84
2022/10/26 07:14:30;;;;;;;7.47;2.60;;;;;;;14.37;89.94;95718.81;4856916;29;20613;-84
2022/10/26 07:16:55;;;;;;;10.87;3.17;;;;;;;14.49;89.33;95722.75;4852233;29;20192;-84
2022/10/26 07:19:21;;;;;;;5.70;3.30;;;;;;;14.68;88.42;95729.41;4858151;29;20273;-84
2022/10/26 07:21:46;;;;;;;7.47;2.83;;;;;;;14.71;88.23;95731.66;4847015;29;20241;-85
2022/10/26 07:24:11;;;;;;;8.30;2.83;;;;;;;14.76;88.44;95734.59;4852428;29;20535;-86
2022/10/26 07:26:37;;;;;;;5.83;2.30;;;;;;;14.68;89.26;95737.25;4852461;29;20203;-85
2022/10/26 07:29:02;;;;;;;8.23;3.07;;;;;;;14.72;89.42;95738.53;4843726;29;20228;-86
2022/10/26 07:31:27;;;;;;;9.93;3.67;;;;;;;14.81;89.04;95747.16;4864211;29;20563;-86
2022/10/26 07:33:53;;;;;;;6.53;3.00;;;;;;;14.87;88.48;95746.50;4862094;29;20211;-85
2022/10/26 07:36:18;;;;;;;10.17;3.03;;;;;;;14.84;88.79;95749.41;4861132;29;20201;-84
2022/10/26 07:38:44;;;;;;;6.93;2.93;;;;;;;14.96;88.32;95741.06;4837964;29;20203;-84
2022/10/26 07:41:09;;;;;;;5.30;2.73;;;;;;;14.99;88.45;95751.16;4841466;29;20200;-85
2022/10/26 07:43:34;;;;;;;7.73;3.17;;;;;;;15.01;88.69;95758.84;4857287;29;20208;-85
2022/10/26 07:45:59;;;;;;;11.27;3.40;;;;;;;15.09;88.19;95752.75;4848491;29;20201;-86
2022/10/26 07:48:25;;;;;;;6.97;3.00;;;;;;;15.10;87.72;95767.47;4864588;29;20197;-85
2022/10/26 07:50:50;;;;;;;8.37;3.53;;;;;;;15.23;87.12;95770.38;4839529;29;20244;-84
2022/10/26 07:53:15;;;;;;;8.20;2.95;;;;;;;15.26;87.06;95767.41;4861906;29;20189;-84
2022/10/26 07:55:41;;;;;;;5.20;2.80;;;;;;;15.40;86.37;95758.03;4863018;29;20194;-85
2022/10/26 07:58:06;;;;;;;9.52;3.83;;;;;;;15.50;85.80;95763.84;4834444;29;20251;-85
2022/10/26 08:00:31;;;;;;;5.90;2.83;;;;;;;15.41;85.98;95764.88;4849852;29;20213;-86
2022/10/26 08:02:57;;;;;;;12.57;2.90;;;;;;;15.51;86.19;95770.72;4852422;29;20225;-86
2022/10/26 08:05:22;;;;;;;7.85;3.28;;;;;;;15.46;85.84;95775.63;4858826;29;20193;-86
2022/10/26 08:07:47;;;;;;;9.65;2.65;;;;;;;15.59;85.34;95768.03;4837870;29;20305;-86
2022/10/26 08:10:14;;;;;;;6.13;2.83;;;;;;;15.56;85.20;95773.63;4843616;29;20209;-85
2022/10/26 08:12:40;;;;;;;6.43;3.03;;;;;;;15.64;85.00;95768.38;4854993;29;20191;-85
2022/10/26 08:15:06;;;;;;;9.43;3.30;;;;;;;15.72;84.26;95770.09;4845863;29;20208;-85
2022/10/26 08:17:31;;;;;;;9.60;3.10;;;;;;;15.77;84.35;95775.66;4852679;29;20221;-85
2022/10/26 08:19:57;;;;;;;6.37;3.17;;;;;;;15.80;83.29;95775.28;4855571;29;20257;-86
2022/10/26 08:22:22;;;;;;;9.00;3.08;;;;;;;15.89;83.31;95770.81;4844971;29;20317;-85
2022/10/26 08:24:47;;;;;;;5.38;3.00;;;;;;;15.94;83.32;95769.31;4857530;29;20207;-85
2022/10/26 08:27:13;;;;;;;7.47;3.15;;;;;;;15.93;82.71;95779.97;4856853;29;20200;-86
2022/10/26 08:29:39;;;;;;;7.32;3.13;;;;;;;16.06;82.15;95782.81;4862918;29;20223;-85
2022/10/26 08:32:05;;;;;;;8.60;3.10;;;;;;;16.16;80.99;95775.50;4842943;29;20220;-86
2022/10/26 08:34:30;;;;;;;5.95;2.97;;;;;;;16.40;80.06;95782.34;4864903;29;20222;-86
2022/10/26 08:36:55;;;;;;;8.10;3.20;;;;;;;16.24;80.27;95787.72;4840227;29;20194;-85
2022/10/26 08:39:21;;;;;;;4.70;3.08;;;;;;;16.48;80.13;95789.34;4854130;29;20705;-86
2022/10/26 08:41:51;;;;;;;6.25;2.33;;;;;;;16.48;79.09;95794.56;4851524;29;20681;-86
2022/10/26 08:44:27;;;;;;;6.57;2.80;;;;;;;16.56;77.56;95792.69;4859381;29;20557;-86
2022/10/26 08:46:57;;;;;;;6.22;2.90;;;;;;;16.72;76.73;95802.25;4843546;29;20185;-86
2022/10/26 08:49:24;;;;;;;6.25;2.80;;;;;;;16.75;77.36;95796.63;4854341;29;20241;-86
2022/10/26 08:51:52;;;;;;;8.25;2.88;;;;;;;16.53;76.14;95798.31;4860693;29;20189;-86
2022/10/26 08:54:29;;;;;;;8.20;2.92;;;;;;;16.61;76.12;95803.47;4864460;29;20216;-86
2022/10/26 08:57:00;;;;;;;12.18;2.95;;;;;;;16.72;76.88;95811.94;4862299;29;20192;-86
2022/10/26 08:59:35;;;;;;;9.80;2.95;;;;;;;16.75;76.67;95811.56;4837528;29;20251;-86
2022/10/26 09:02:01;;;;;;;6.75;3.03;;;;;;;16.91;75.52;95816.63;4846318;29;20204;-85
2022/10/26 09:04:28;;;;;;;7.18;2.75;;;;;;;16.99;75.29;95822.63;4839877;29;20191;-86
2022/10/26 09:07:30;;;;;;;10.07;2.70;;;;;;;17.11;75.30;95822.97;4845734;29;20299;-86
2022/10/26 09:10:07;;;;;;;4.93;2.92;;;;;;;16.81;74.86;95826.59;4868942;29;20287;-86
2022/10/26 09:12:41;;;;;;;11.30;3.10;;;;;;;16.90;76.15;95834.19;4857611;29;20210;-85
2022/10/26 09:15:06;;;;;;;6.65;3.25;;;;;;;17.11;75.71;95838.72;4853734;29;20240;-86
2022/10/26 09:18:07;;;;;;;6.82;2.80;;;;;;;17.30;74.58;95844.41;4855397;29;20193;-85
2022/10/26 09:21:04;;;;;;;10.77;3.22;;;;;;;17.50;74.55;95848.94;4874980;29;20234;-86
2022/10/26 09:23:46;;;;;;;9.10;2.72;;;;;;;17.66;71.96;95847.88;4837212;29;20254;-84
2022/10/26 09:26:13;;;;;;;6.80;2.95;;;;;;;17.97;71.30;95860.81;4858545;29;20189;-84
2022/10/26 09:28:40;;;;;;;10.30;2.90;;;;;;;17.86;71.14;95844.72;4856347;29;20199;-80
2022/10/26 09:31:05;;;;;;;15.35;3.28;;;;;;;17.82;71.63;95852.16;4855648;29;20217;-82
2022/10/26 09:33:36;;;;;;;10.93;3.17;;;;;;;17.79;71.74;95858.59;4832295;29;20257;-83
2022/10/26 09:36:07;;;;;;;8.30;2.65;;;;;;;17.62;71.77;95851.91;4841279;29;20192;-84
2022/10/26 09:38:42;;;;;;;10.25;3.53;;;;;;;17.70;71.85;95854.44;4851099;29;20197;-84
2022/10/26 09:41:21;;;;;;;7.75;2.72;;;;;;;17.80;71.95;95859.41;4842570;29;20212;-84
2022/10/26 09:43:54;;;;;;;22.58;3.33;;;;;;;17.81;71.71;95861.03;4852730;29;20284;-83
2022/10/26 09:46:25;;;;;;;5.88;2.38;;;;;;;17.87;72.31;95864.75;4845821;29;20224;-82
2022/10/26 09:48:53;;;;;;;8.40;3.08;;;;;;;17.96;71.71;95869.69;4852824;29;20212;-83
2022/10/26 09:51:19;;;;;;;4.85;2.28;;;;;;;18.07;71.01;95871.03;4861448;29;20561;-84
2022/10/26 09:53:45;;;;;;;12.30;2.47;;;;;;;17.90;68.63;95877.50;4855008;29;20197;-84
2022/10/26 09:56:12;;;;;;;11.77;2.45;;;;;;;17.98;69.57;95883.47;4849163;29;20204;-83
2022/10/26 09:58:47;;;;;;;5.40;1.83;;;;;;;17.99;69.67;95881.66;4856935;29;20193;-84
2022/10/26 10:01:33;;;;;;;7.13;2.63;;;;;;;17.99;67.42;95882.47;4847376;29;20188;-84
2022/10/26 10:04:29;;;;;;;7.00;2.00;;;;;;;17.90;68.30;95894.06;4840937;29;20286;-82
2022/10/26 10:07:00;;;;;;;6.55;2.65;;;;;;;17.79;68.98;95900.63;4889163;29;20209;-83
2022/10/26 10:09:26;;;;;;;7.07;2.00;;;;;;;17.74;68.80;95905.59;4886902;29;20217;-83
2022/10/26 10:11:54;;;;;;;4.15;1.80;;;;;;;17.60;69.77;95903.78;4888120;29;20207;-84
2022/10/26 10:14:30;;;;;;;7.28;2.38;;;;;;;17.42;69.18;95901.53;4881999;29;20195;-84
2022/10/26 10:16:56;;;;;;;5.25;2.00;;;;;;;17.32;69.99;95908.06;4897756;29;20207;-83
2022/10/26 10:19:35;;;;;;;6.40;2.05;;;;;;;17.22;70.04;95911.72;4939948;29;20222;-83
2022/10/26 10:22:24;;;;;;;8.57;2.05;;;;;;;17.19;70.55;95909.47;4896011;29;20246;-84
2022/10/26 10:24:56;;;;;;;4.97;2.25;;;;;;;17.16;70.62;95914.28;4899709;29;20270;-83
2022/10/26 10:27:22;;;;;;;6.35;2.10;;;;;;;17.28;71.19;95915.47;4900619;29;20180;-84
2022/10/26 10:29:50;;;;;;;8.60;2.13;;;;;;;17.41;70.71;95907.78;4896611;29;20227;-83
2022/10/26 10:32:23;;;;;;;4.57;2.00;;;;;;;17.49;70.77;95912.94;4874821;29;20253;-83
2022/10/26 10:34:51;;;;;;;4.85;2.10;;;;;;;17.63;69.92;95907.84;4881326;29;20334;-84
2022/10/26 10:37:23;;;;;;;3.38;1.90;;;;;;;17.62;70.04;95914.13;4889592;29;20663;-84
2022/10/26 10:39:49;;;;;;;9.18;2.28;;;;;;;17.61;70.63;95929.06;4886388;29;20221;-84
2022/10/26 10:42:17;;;;;;;4.90;1.75;;;;;;;17.53;69.43;95918.63;4865346;29;20203;-84
2022/10/26 10:44:44;;;;;;;6.63;1.85;;;;;;;17.57;70.04;95922.53;4852257;29;20189;-85
2022/10/26 10:47:18;;;;;;;2.25;1.67;;;;;;;17.61;70.35;95929.06;4841067;29;21222;-85
2022/10/26 10:49:50;;;;;;;4.72;2.17;;;;;;;17.58;69.81;95923.34;4848309;29;20223;-84
2022/10/26 10:52:24;;;;;;;6.93;2.10;;;;;;;17.59;70.11;95935.50;4851614;29;20204;-84
2022/10/26 10:54:55;;;;;;;6.65;2.17;;;;;;;17.69;69.43;95933.41;4849125;29;20678;-84
2022/10/26 10:57:44;;;;;;;5.45;2.08;;;;;;;17.81;69.27;95930.16;4846348;29;20220;-85
2022/10/26 11:00:11;;;;;;;5.78;1.52;;;;;;;17.85;69.09;95935.06;4842476;29;20237;-85
2022/10/26 11:02:52;;;;;;;3.15;1.60;;;;;;;18.02;66.99;95941.69;4848969;29;20213;-84
2022/10/26 11:05:28;;;;;;;5.80;1.90;;;;;;;18.26;65.89;95938.75;4865879;29;20189;-85
2022/10/26 11:08:01;;;;;;;7.97;1.63;;;;;;;18.46;65.24;95938.16;4852839;29;20185;-84
2022/10/26 11:10:32;;;;;;;5.45;1.90;;;;;;;18.61;63.95;95936.28;4837751;29;20239;-85
2022/10/26 11:13:00;;;;;;;4.45;1.60;;;;;;;18.78;63.93;95931.63;4848575;29;20189;-85
2022/10/26 11:15:29;;;;;;;3.58;2.03;;;;;;;18.77;64.19;95945.78;4837609;29;20259;-86
2022/10/26 11:18:03;;;;;;;3.80;1.75;;;;;;;18.96;63.92;95943.31;4833837;29;20188;-84
2022/10/26 11:20:30;;;;;;;4.55;1.65;;;;;;;19.12;63.06;95944.03;4854030;29;20227;-85
2022/10/26 11:23:04;;;;;;;4.40;1.95;;;;;;;19.04;62.86;95952.06;4853646;29;20208;-85
2022/10/26 11:25:39;;;;;;;6.00;1.50;;;;;;;18.95;63.13;95949.59;4854101;29;20193;-86
2022/10/26 11:28:14;;;;;;;5.10;1.80;;;;;;;18.78;63.62;95950.03;4854705;29;20218;-85
2022/10/26 11:30:46;;;;;;;4.15;2.08;;;;;;;18.47;63.63;95956.38;4845616;29;20224;-83
2022/10/26 11:33:19;;;;;;;4.50;1.70;;;;;;;18.52;64.42;95956.63;4852152;29;20211;-84
2022/10/26 11:35:54;;;;;;;4.70;1.85;;;;;;;18.65;63.65;95956.81;4870395;29;20451;-84
2022/10/26 11:38:23;;;;;;;4.72;1.50;;;;;;;18.66;63.29;95963.69;4873237;29;20547;-85
2022/10/26 11:41:16;;;;;;;4.85;1.75;;;;;;;19.03;62.69;95955.72;4853653;29;20273;-85
2022/10/26 11:43:47;;;;;;;4.97;1.75;;;;;;;19.22;61.62;95952.41;4857399;29;20185;-85
2022/10/26 11:46:19;;;;;;;5.40;1.30;;;;;;;19.29;60.08;95953.28;4857846;29;20207;-85
2022/10/26 11:48:58;;;;;;;4.70;1.40;;;;;;;19.77;59.90;95953.41;4871673;29;20212;-85